Time;durP1;ratioP1;P1;durP2;ratioP2;P2;SDS_P1;SDS_P2;PMS_P1;PMS_P2;Temp;Humidity;BMP_temperature;BMP_pressure;BME280_temperature;BME280_humidity;BME280_pressure;Samples;Min_cycle;Max_cycle;Signal;HPM_P1;HPM_P2
2023/11/07 00:01:42;;;;;;;1.95;0.65;;;8.90;99.90;;;;;;5029489;28;20436;-67
2023/11/07 00:04:08;;;;;;;3.10;0.85;;;8.80;99.90;;;;;;5047642;28;20026;-67
2023/11/07 00:06:34;;;;;;;0.73;0.40;;;8.80;99.90;;;;;;5043613;28;20036;-67
2023/11/07 00:09:00;;;;;;;2.47;0.57;;;8.70;99.90;;;;;;5047324;28;20490;-67
2023/11/07 00:11:25;;;;;;;3.10;0.60;;;8.60;99.90;;;;;;5047263;28;20021;-68
2023/11/07 00:13:51;;;;;;;0.80;0.50;;;8.40;99.90;;;;;;5047817;28;20047;-68
2023/11/07 00:16:16;;;;;;;7.78;0.65;;;8.30;99.90;;;;;;5046286;28;20164;-68
2023/11/07 00:18:42;;;;;;;3.67;0.60;;;8.30;99.90;;;;;;5045247;28;20067;-68
2023/11/07 00:21:08;;;;;;;1.27;0.40;;;8.20;99.90;;;;;;5043933;28;20025;-68
2023/11/07 00:23:33;;;;;;;5.55;0.80;;;8.20;99.90;;;;;;5044098;28;20039;-68
2023/11/07 00:25:59;;;;;;;5.10;0.70;;;8.10;99.90;;;;;;5044314;28;20506;-68
2023/11/07 00:28:27;;;;;;;1.27;0.40;;;8.10;99.90;;;;;;5046540;28;20048;-69
2023/11/07 00:30:53;;;;;;;3.63;1.02;;;8.10;99.90;;;;;;5045584;28;20108;-68
2023/11/07 00:33:19;;;;;;;1.17;0.55;;;8.00;99.90;;;;;;5045304;28;20136;-68
2023/11/07 00:35:44;;;;;;;2.30;0.75;;;8.00;99.90;;;;;;5002789;28;20084;-68
2023/11/07 00:38:10;;;;;;;2.90;0.73;;;8.00;99.90;;;;;;5023524;28;20039;-68
2023/11/07 00:40:36;;;;;;;0.68;0.40;;;7.90;99.90;;;;;;5025924;28;20017;-68
2023/11/07 00:43:01;;;;;;;2.65;0.90;;;7.90;99.90;;;;;;5025237;28;20018;-67
2023/11/07 00:45:27;;;;;;;0.85;0.60;;;7.80;99.90;;;;;;5025691;28;20038;-68
2023/11/07 00:47:52;;;;;;;0.77;0.40;;;7.70;99.90;;;;;;5025500;28;20155;-68
2023/11/07 00:50:18;;;;;;;2.20;0.52;;;7.70;99.90;;;;;;5023032;28;20053;-68
2023/11/07 00:52:44;;;;;;;1.63;0.60;;;7.60;99.90;;;;;;5025806;28;20103;-67
2023/11/07 00:55:09;;;;;;;3.30;0.45;;;7.50;99.90;;;;;;5027139;28;20025;-69
2023/11/07 00:57:35;;;;;;;2.38;0.50;;;7.50;99.90;;;;;;5010076;28;20022;-68
2023/11/07 01:00:01;;;;;;;0.60;0.47;;;7.40;99.90;;;;;;5027457;28;20049;-67
2023/11/07 01:02:27;;;;;;;2.88;1.20;;;7.40;99.90;;;;;;5027259;28;20055;-68
2023/11/07 01:04:53;;;;;;;2.45;0.52;;;7.30;99.90;;;;;;5022924;28;20491;-68
2023/11/07 01:07:18;;;;;;;4.53;0.68;;;7.30;99.90;;;;;;5024650;28;20917;-68
2023/11/07 01:09:44;;;;;;;2.70;0.60;;;7.20;99.90;;;;;;5025529;28;20105;-68
2023/11/07 01:12:09;;;;;;;0.93;0.40;;;7.20;99.90;;;;;;5024244;28;20068;-68
2023/11/07 01:14:35;;;;;;;1.55;0.45;;;7.10;99.90;;;;;;5024811;28;20033;-68
2023/11/07 01:17:01;;;;;;;4.07;0.80;;;7.10;99.90;;;;;;5022325;28;20140;-68
2023/11/07 01:19:27;;;;;;;2.28;1.23;;;7.10;99.90;;;;;;5022411;28;20026;-68
2023/11/07 01:21:53;;;;;;;0.70;0.52;;;7.20;99.90;;;;;;5020663;28;20029;-68
2023/11/07 01:24:18;;;;;;;2.40;0.80;;;7.30;99.90;;;;;;5023654;28;20041;-68
2023/11/07 01:26:44;;;;;;;4.28;0.60;;;7.30;99.90;;;;;;5024433;28;20116;-68
2023/11/07 01:29:10;;;;;;;2.92;0.82;;;7.40;99.90;;;;;;5024394;28;20030;-68
2023/11/07 01:31:35;;;;;;;4.40;0.60;;;7.40;99.90;;;;;;5023312;28;20034;-68
2023/11/07 01:34:01;;;;;;;1.88;0.88;;;7.50;99.90;;;;;;5022650;28;20132;-68
2023/11/07 01:36:27;;;;;;;2.28;0.77;;;7.50;99.90;;;;;;5000623;28;20131;-68
2023/11/07 01:38:52;;;;;;;6.35;0.60;;;7.50;99.90;;;;;;5012087;28;20030;-69
2023/11/07 01:41:18;;;;;;;1.60;0.65;;;7.50;99.90;;;;;;5023349;28;20710;-68
2023/11/07 01:43:45;;;;;;;6.45;0.80;;;7.50;99.90;;;;;;5005195;28;21208;-68
2023/11/07 01:46:11;;;;;;;4.22;0.60;;;7.50;99.90;;;;;;5022929;28;20029;-68
2023/11/07 01:48:37;;;;;;;1.92;0.82;;;7.50;99.90;;;;;;5024321;28;20056;-69
2023/11/07 01:51:04;;;;;;;2.88;0.70;;;7.40;99.90;;;;;;5024045;28;20587;-68
2023/11/07 01:53:30;;;;;;;4.88;0.60;;;7.40;99.90;;;;;;5021283;28;20040;-68
2023/11/07 01:55:57;;;;;;;1.65;0.73;;;7.50;99.90;;;;;;5021912;28;20427;-68
2023/11/07 01:58:24;;;;;;;2.45;0.57;;;7.50;99.90;;;;;;5024576;28;20160;-68
2023/11/07 02:00:53;;;;;;;3.92;0.80;;;7.60;99.90;;;;;;5025134;28;20038;-68
2023/11/07 02:03:21;;;;;;;1.95;0.50;;;7.70;99.90;;;;;;5024532;28;20009;-68
2023/11/07 02:05:47;;;;;;;5.70;0.73;;;7.90;99.90;;;;;;5023619;28;20095;-68
2023/11/07 02:08:13;;;;;;;2.92;0.60;;;8.00;99.90;;;;;;5022557;28;20558;-68
2023/11/07 02:10:39;;;;;;;1.60;0.45;;;8.10;99.90;;;;;;5024802;28;20390;-67
2023/11/07 02:13:04;;;;;;;1.65;0.50;;;8.10;99.90;;;;;;5024479;28;20041;-68
2023/11/07 02:15:31;;;;;;;1.92;1.10;;;8.20;99.90;;;;;;5023969;28;20041;-67
2023/11/07 02:17:57;;;;;;;4.20;0.70;;;8.20;99.90;;;;;;5024251;28;20036;-68
2023/11/07 02:20:24;;;;;;;1.60;0.60;;;8.20;99.90;;;;;;5024590;28;20033;-67
2023/11/07 02:22:55;;;;;;;4.38;1.33;;;8.20;99.90;;;;;;5023589;28;20022;-67
2023/11/07 02:25:21;;;;;;;3.28;0.60;;;8.20;99.90;;;;;;5022504;28;20592;-68
2023/11/07 02:27:46;;;;;;;4.82;0.60;;;8.20;99.90;;;;;;5025101;28;20029;-67
2023/11/07 02:30:13;;;;;;;7.60;1.17;;;8.30;99.90;;;;;;5021758;28;20055;-67
2023/11/07 02:32:42;;;;;;;1.95;0.50;;;8.30;99.90;;;;;;5022842;28;20041;-67
2023/11/07 02:35:11;;;;;;;2.78;0.68;;;8.30;99.90;;;;;;4996662;28;20055;-68
2023/11/07 02:37:40;;;;;;;1.65;0.82;;;8.30;99.90;;;;;;5022215;28;20479;-68
2023/11/07 02:40:09;;;;;;;2.22;0.57;;;8.30;99.90;;;;;;5025027;28;20030;-68
2023/11/07 02:42:35;;;;;;;0.80;0.47;;;8.30;99.90;;;;;;5028256;28;20068;-68
2023/11/07 02:45:02;;;;;;;2.30;0.63;;;8.30;99.90;;;;;;5027339;28;20061;-68
2023/11/07 02:47:28;;;;;;;4.30;1.00;;;8.20;99.90;;;;;;5028031;28;20030;-67
2023/11/07 02:49:55;;;;;;;2.50;0.40;;;8.10;99.90;;;;;;5027496;28;20021;-67
2023/11/07 02:52:20;;;;;;;5.38;1.30;;;8.00;99.90;;;;;;5026362;28;20869;-67
2023/11/07 02:54:47;;;;;;;1.50;0.50;;;8.00;99.90;;;;;;5027575;28;20049;-68
2023/11/07 02:57:12;;;;;;;3.95;1.63;;;8.00;99.90;;;;;;5028274;28;20029;-67
2023/11/07 02:59:39;;;;;;;3.65;0.80;;;7.90;99.90;;;;;;5026435;28;20025;-67
2023/11/07 03:02:04;;;;;;;3.17;0.82;;;7.90;99.90;;;;;;5027821;28;20025;-67
2023/11/07 03:04:30;;;;;;;2.67;0.70;;;7.80;99.90;;;;;;5027812;28;20115;-68
2023/11/07 03:06:55;;;;;;;2.83;0.65;;;7.70;99.90;;;;;;5026445;28;20291;-67
2023/11/07 03:09:21;;;;;;;1.13;0.70;;;7.70;99.90;;;;;;5026367;28;20120;-67
2023/11/07 03:11:47;;;;;;;4.28;0.98;;;7.60;99.90;;;;;;5028216;28;20099;-67
2023/11/07 03:14:12;;;;;;;4.60;0.82;;;7.60;99.90;;;;;;5026353;28;20095;-67
2023/11/07 03:16:40;;;;;;;0.73;0.50;;;7.50;99.90;;;;;;5027392;28;20045;-67
2023/11/07 03:19:07;;;;;;;0.95;0.60;;;7.50;99.90;;;;;;5026419;28;20049;-67
2023/11/07 03:21:36;;;;;;;1.45;0.90;;;7.40;99.90;;;;;;5025861;28;20013;-67
2023/11/07 03:24:03;;;;;;;4.35;0.55;;;7.40;99.90;;;;;;5027019;28;20029;-67
2023/11/07 03:26:29;;;;;;;1.15;0.50;;;7.30;99.90;;;;;;5025844;28;20026;-67
2023/11/07 03:28:55;;;;;;;5.50;0.80;;;7.30;99.90;;;;;;5027133;28;20071;-67
2023/11/07 03:31:20;;;;;;;2.88;0.88;;;7.30;99.90;;;;;;5026363;28;20104;-67
2023/11/07 03:33:46;;;;;;;2.03;0.55;;;7.20;99.90;;;;;;5026249;28;20049;-67
2023/11/07 03:36:15;;;;;;;3.03;0.90;;;7.20;99.90;;;;;;4995582;28;21265;-67
2023/11/07 03:38:42;;;;;;;11.50;1.35;;;7.20;99.90;;;;;;5023715;28;20124;-68
2023/11/07 03:41:08;;;;;;;2.92;0.65;;;7.20;99.90;;;;;;5026504;28;20132;-67
2023/11/07 03:43:34;;;;;;;3.53;1.05;;;7.30;99.90;;;;;;5027861;28;20107;-67
2023/11/07 03:46:00;;;;;;;1.77;0.80;;;7.40;99.90;;;;;;5025116;28;20030;-67
2023/11/07 03:48:26;;;;;;;4.80;1.30;;;7.40;99.90;;;;;;5021860;28;20033;-67
2023/11/07 03:50:54;;;;;;;5.25;0.90;;;7.40;99.90;;;;;;5026820;28;20030;-68
2023/11/07 03:53:20;;;;;;;1.60;0.77;;;7.40;99.90;;;;;;5026352;28;20107;-68
2023/11/07 03:55:46;;;;;;;1.23;0.52;;;7.40;99.90;;;;;;5025309;28;20116;-67
2023/11/07 03:58:11;;;;;;;1.23;0.88;;;7.50;99.90;;;;;;5026295;28;20037;-67
2023/11/07 04:00:37;;;;;;;2.72;0.82;;;7.50;99.90;;;;;;5023694;28;20021;-67
2023/11/07 04:03:03;;;;;;;1.90;0.57;;;7.60;99.90;;;;;;5025673;28;20026;-67
2023/11/07 04:05:29;;;;;;;7.97;0.68;;;7.60;99.90;;;;;;5025340;28;20151;-67
2023/11/07 04:07:58;;;;;;;2.83;0.60;;;7.60;99.90;;;;;;5025753;28;20091;-66
2023/11/07 04:10:24;;;;;;;3.80;0.70;;;7.70;99.90;;;;;;5026677;28;20230;-67
2023/11/07 04:12:50;;;;;;;1.08;0.60;;;7.70;99.90;;;;;;5026501;28;20061;-67
2023/11/07 04:15:17;;;;;;;0.70;0.70;;;7.70;99.90;;;;;;5025426;28;20041;-67
2023/11/07 04:17:42;;;;;;;4.32;0.73;;;7.70;99.90;;;;;;5009012;28;20033;-67
2023/11/07 04:20:11;;;;;;;1.10;0.70;;;7.80;99.90;;;;;;5023893;28;20025;-67
2023/11/07 04:22:38;;;;;;;5.00;0.80;;;7.80;99.90;;;;;;5024814;28;20018;-67
2023/11/07 04:25:03;;;;;;;1.60;0.95;;;7.90;99.90;;;;;;5024747;28;20064;-67
2023/11/07 04:27:29;;;;;;;1.83;0.43;;;8.00;99.90;;;;;;5025669;28;20079;-67
2023/11/07 04:29:55;;;;;;;4.10;0.90;;;8.10;99.90;;;;;;5026535;28;20458;-68
2023/11/07 04:32:21;;;;;;;1.50;0.60;;;8.10;99.90;;;;;;5026890;28;20044;-68
2023/11/07 04:34:47;;;;;;;2.20;0.70;;;8.20;99.90;;;;;;5023860;28;20030;-67
2023/11/07 04:37:14;;;;;;;1.45;0.57;;;8.20;99.90;;;;;;4997316;28;20137;-68
2023/11/07 04:39:39;;;;;;;4.68;0.77;;;8.30;99.90;;;;;;5023700;28;20029;-67
2023/11/07 04:42:05;;;;;;;1.67;0.73;;;8.30;99.90;;;;;;5025888;28;20029;-67
2023/11/07 04:44:31;;;;;;;1.13;0.70;;;8.30;99.90;;;;;;5026369;28;20029;-67
2023/11/07 04:46:57;;;;;;;2.72;0.88;;;8.40;99.90;;;;;;5025655;28;20096;-67
2023/11/07 04:49:23;;;;;;;5.28;0.63;;;8.40;99.90;;;;;;5024422;28;20483;-67
2023/11/07 04:51:48;;;;;;;0.65;0.50;;;8.40;99.90;;;;;;5024860;28;20156;-67
2023/11/07 04:54:14;;;;;;;3.78;0.73;;;8.40;99.90;;;;;;5025483;28;20040;-68
2023/11/07 04:56:40;;;;;;;2.08;0.60;;;8.50;99.90;;;;;;5025995;28;20557;-69
2023/11/07 04:59:05;;;;;;;3.58;0.50;;;8.50;99.90;;;;;;5026037;28;20040;-68
2023/11/07 05:01:31;;;;;;;1.25;0.47;;;8.50;99.90;;;;;;5025084;28;20499;-68
2023/11/07 05:03:57;;;;;;;2.88;0.77;;;8.60;99.90;;;;;;5024270;28;20022;-68
2023/11/07 05:06:25;;;;;;;0.80;0.50;;;8.60;99.90;;;;;;5024400;28;20033;-68
2023/11/07 05:08:51;;;;;;;2.22;0.40;;;8.60;99.90;;;;;;5001440;28;20061;-68
2023/11/07 05:11:19;;;;;;;1.45;0.60;;;8.70;99.90;;;;;;5025017;28;20057;-68
2023/11/07 05:13:45;;;;;;;1.65;0.47;;;8.70;99.90;;;;;;5024362;28;20038;-67
2023/11/07 05:16:11;;;;;;;2.42;0.47;;;8.70;99.90;;;;;;5025315;28;20069;-67
2023/11/07 05:18:37;;;;;;;3.22;0.40;;;8.70;99.90;;;;;;5025267;28;20104;-67
2023/11/07 05:21:03;;;;;;;1.17;0.73;;;8.70;99.90;;;;;;5024647;28;20021;-67
2023/11/07 05:23:29;;;;;;;0.60;0.45;;;8.70;99.90;;;;;;5023897;28;20045;-67
2023/11/07 05:25:55;;;;;;;2.30;0.75;;;8.70;99.90;;;;;;5023814;28;20041;-67
2023/11/07 05:28:20;;;;;;;4.20;0.60;;;8.70;99.90;;;;;;5023836;28;20069;-67
2023/11/07 05:30:46;;;;;;;1.40;0.63;;;8.80;99.90;;;;;;4993930;28;20091;-68
2023/11/07 05:33:12;;;;;;;0.70;0.40;;;8.80;99.90;;;;;;5025256;28;20383;-67
2023/11/07 05:35:38;;;;;;;0.88;0.50;;;8.80;99.90;;;;;;5023977;28;20040;-67
2023/11/07 05:38:04;;;;;;;1.95;0.75;;;8.80;99.90;;;;;;4995936;28;20523;-67
2023/11/07 05:40:30;;;;;;;1.65;0.70;;;8.80;99.90;;;;;;5024123;28;20057;-67
2023/11/07 05:42:56;;;;;;;0.50;0.50;;;8.80;99.90;;;;;;5007430;28;20061;-67
2023/11/07 05:45:21;;;;;;;7.97;0.65;;;8.80;99.90;;;;;;5023641;28;20055;-67
2023/11/07 05:47:47;;;;;;;1.17;0.63;;;8.80;99.90;;;;;;5021315;28;20037;-67
2023/11/07 05:50:13;;;;;;;2.05;0.70;;;8.80;99.90;;;;;;5023619;28;20083;-67
2023/11/07 05:52:38;;;;;;;4.95;0.50;;;8.80;99.90;;;;;;5024271;28;20550;-67
2023/11/07 05:55:06;;;;;;;1.33;0.60;;;8.80;99.90;;;;;;5023907;28;20021;-67
2023/11/07 05:57:32;;;;;;;1.02;0.70;;;8.80;99.90;;;;;;5024216;28;20026;-67
2023/11/07 05:59:59;;;;;;;7.03;0.75;;;8.80;99.90;;;;;;5024909;28;20025;-67
2023/11/07 06:02:25;;;;;;;3.22;0.70;;;8.80;99.90;;;;;;5021712;28;20025;-68
2023/11/07 06:04:53;;;;;;;5.53;0.60;;;8.80;99.90;;;;;;5025156;28;20032;-67
2023/11/07 06:07:18;;;;;;;2.47;0.63;;;8.80;99.90;;;;;;5022965;28;20685;-67
2023/11/07 06:09:44;;;;;;;3.35;0.70;;;8.80;99.90;;;;;;5024200;28;20109;-68
2023/11/07 06:12:10;;;;;;;3.85;0.93;;;8.80;99.90;;;;;;5024658;28;20034;-67
2023/11/07 06:14:36;;;;;;;2.10;0.68;;;8.90;99.90;;;;;;5024834;28;20075;-67
2023/11/07 06:17:02;;;;;;;2.40;0.90;;;8.80;99.90;;;;;;5026340;28;20030;-67
2023/11/07 06:19:28;;;;;;;1.30;0.68;;;8.90;99.90;;;;;;5011092;28;20034;-68
2023/11/07 06:21:54;;;;;;;4.20;0.93;;;8.90;99.90;;;;;;5028575;28;20033;-68
2023/11/07 06:24:19;;;;;;;0.82;0.68;;;8.90;99.90;;;;;;5029462;28;20022;-67
2023/11/07 06:26:46;;;;;;;3.63;0.63;;;8.90;99.90;;;;;;5027438;28;20033;-67
2023/11/07 06:29:12;;;;;;;2.03;0.63;;;8.90;99.90;;;;;;5029493;28;20036;-67
2023/11/07 06:35:00;;;;;;;2.47;0.50;;;8.80;99.90;;;;;;5011434;28;20138;-67
2023/11/07 06:37:33;;;;;;;3.22;0.68;;;8.90;99.90;;;;;;5028424;28;20057;-67
2023/11/07 06:40:00;;;;;;;1.33;0.60;;;8.90;99.90;;;;;;5027184;28;20410;-67
2023/11/07 06:42:25;;;;;;;0.55;0.45;;;8.90;99.90;;;;;;5028305;28;20044;-68
2023/11/07 06:44:51;;;;;;;1.02;0.65;;;8.90;99.90;;;;;;5027911;28;20033;-68
2023/11/07 06:47:17;;;;;;;1.48;0.57;;;8.90;99.90;;;;;;5028078;28;20033;-67
2023/11/07 06:49:42;;;;;;;0.88;0.50;;;8.90;99.90;;;;;;5026127;28;20390;-68
2023/11/07 06:52:08;;;;;;;1.23;0.60;;;8.90;99.90;;;;;;5026701;28;20036;-67
2023/11/07 06:54:33;;;;;;;1.65;0.63;;;9.00;99.90;;;;;;5026666;28;20100;-68
2023/11/07 06:56:59;;;;;;;1.00;0.50;;;9.00;99.90;;;;;;5027905;28;20037;-69
2023/11/07 06:59:25;;;;;;;1.27;0.50;;;9.00;99.90;;;;;;5028495;28;20044;-67
2023/11/07 07:01:51;;;;;;;0.98;0.60;;;9.00;99.90;;;;;;5027274;28;20025;-68
2023/11/07 07:04:17;;;;;;;5.03;0.95;;;9.10;99.90;;;;;;5025715;28;20083;-67
2023/11/07 07:06:43;;;;;;;0.50;0.43;;;9.10;99.90;;;;;;5027146;28;20091;-67
2023/11/07 07:09:09;;;;;;;0.85;0.40;;;9.20;99.90;;;;;;5026851;28;20034;-67
2023/11/07 07:11:35;;;;;;;0.50;0.40;;;9.20;99.90;;;;;;5009254;28;20021;-67
2023/11/07 07:14:02;;;;;;;1.52;0.80;;;9.30;99.90;;;;;;5027090;28;20029;-68
2023/11/07 07:16:30;;;;;;;2.58;0.65;;;9.30;99.90;;;;;;5027570;28;20033;-67
2023/11/07 07:18:56;;;;;;;0.47;0.47;;;9.30;99.90;;;;;;5007381;28;20109;-67
2023/11/07 07:21:22;;;;;;;3.80;0.70;;;9.30;99.90;;;;;;5008902;28;20030;-68
2023/11/07 07:23:48;;;;;;;2.15;0.50;;;9.40;99.90;;;;;;5025631;28;20095;-68
2023/11/07 07:26:14;;;;;;;3.50;0.60;;;9.30;99.90;;;;;;5026405;28;20041;-67
2023/11/07 07:28:41;;;;;;;0.75;0.50;;;9.30;99.90;;;;;;5007861;28;20395;-67
2023/11/07 07:31:07;;;;;;;2.75;0.68;;;9.40;99.90;;;;;;5026701;28;20033;-68
2023/11/07 07:33:34;;;;;;;1.50;0.80;;;9.30;99.90;;;;;;5026063;28;20033;-68
2023/11/07 07:36:04;;;;;;;1.50;0.80;;;9.40;99.90;;;;;;5003330;28;20060;-68
2023/11/07 07:38:32;;;;;;;2.90;0.60;;;9.40;99.90;;;;;;5008049;28;20192;-67
2023/11/07 07:40:58;;;;;;;0.43;0.40;;;9.30;99.90;;;;;;5025428;28;20029;-68
2023/11/07 07:43:23;;;;;;;1.55;1.45;;;9.40;99.90;;;;;;5008590;28;20032;-67
2023/11/07 07:45:50;;;;;;;0.82;0.52;;;9.40;99.90;;;;;;5025067;28;20038;-67
2023/11/07 07:48:17;;;;;;;0.50;0.50;;;9.40;99.90;;;;;;5028160;28;20022;-68
2023/11/07 07:50:46;;;;;;;1.70;0.63;;;9.40;99.90;;;;;;5023488;28;20021;-67
2023/11/07 07:53:15;;;;;;;0.50;0.50;;;9.40;99.90;;;;;;5008261;28;20033;-67
2023/11/07 07:55:43;;;;;;;0.90;0.50;;;9.50;99.90;;;;;;5026311;28;20021;-68
2023/11/07 07:58:18;;;;;;;1.45;0.65;;;9.50;99.90;;;;;;5009045;28;20032;-68
2023/11/07 08:00:52;;;;;;;0.93;0.55;;;9.60;99.90;;;;;;5008827;28;20030;-67
2023/11/07 08:03:18;;;;;;;4.72;1.00;;;9.70;99.90;;;;;;5024378;28;20017;-67
2023/11/07 08:05:44;;;;;;;11.15;0.93;;;9.80;99.90;;;;;;5007452;28;20052;-67
2023/11/07 08:08:10;;;;;;;2.63;0.50;;;9.80;99.90;;;;;;5007970;28;20057;-68
2023/11/07 08:10:36;;;;;;;0.50;0.47;;;9.80;99.90;;;;;;5007888;28;20445;-68
2023/11/07 08:13:09;;;;;;;0.45;0.45;;;9.90;99.90;;;;;;5008625;28;20044;-68
2023/11/07 08:15:36;;;;;;;0.60;0.60;;;9.90;99.90;;;;;;5008477;28;20142;-68
2023/11/07 08:18:06;;;;;;;0.40;0.40;;;9.90;99.90;;;;;;5025131;28;20067;-70
2023/11/07 08:20:33;;;;;;;0.65;0.45;;;10.00;99.90;;;;;;5007583;28;20017;-67
2023/11/07 08:22:59;;;;;;;0.98;0.70;;;10.10;99.90;;;;;;5024455;28;20030;-67
2023/11/07 08:25:27;;;;;;;2.72;0.47;;;10.30;99.90;;;;;;5009545;28;20582;-68
2023/11/07 08:27:53;;;;;;;1.52;0.50;;;10.30;99.90;;;;;;5007684;28;20033;-68
2023/11/07 08:30:23;;;;;;;0.57;0.57;;;10.30;99.90;;;;;;5026469;28;20036;-68
2023/11/07 08:32:49;;;;;;;3.47;1.23;;;10.50;99.90;;;;;;5025900;28;20088;-68
2023/11/07 08:35:16;;;;;;;2.30;0.80;;;10.60;99.90;;;;;;5023168;28;20410;-68
2023/11/07 08:37:42;;;;;;;0.50;0.50;;;10.60;99.90;;;;;;4987919;28;20051;-67
2023/11/07 08:40:10;;;;;;;0.60;0.60;;;10.70;99.90;;;;;;5008633;28;20087;-68
2023/11/07 08:42:43;;;;;;;1.17;0.68;;;11.00;99.90;;;;;;5023323;28;20041;-67
2023/11/07 08:45:15;;;;;;;0.85;0.55;;;11.20;99.90;;;;;;5007649;28;20437;-68
2023/11/07 08:47:43;;;;;;;0.90;0.88;;;11.40;99.90;;;;;;5007979;28;20045;-68
2023/11/07 08:50:10;;;;;;;0.95;0.43;;;11.60;99.90;;;;;;5025325;28;20029;-68
2023/11/07 08:52:37;;;;;;;1.17;0.73;;;11.60;99.90;;;;;;5024905;28;20407;-68
2023/11/07 08:55:05;;;;;;;0.50;0.40;;;11.60;99.90;;;;;;5025485;28;20442;-68
2023/11/07 08:57:32;;;;;;;1.50;0.50;;;11.60;99.90;;;;;;5007384;28;20030;-68
2023/11/07 08:59:58;;;;;;;1.15;0.57;;;11.70;99.90;;;;;;5025901;28;20064;-67
2023/11/07 09:02:23;;;;;;;0.80;0.50;;;11.70;99.90;;;;;;5024307;28;20028;-68
2023/11/07 09:04:49;;;;;;;0.95;0.60;;;11.70;99.90;;;;;;5006399;28;20652;-68
2023/11/07 09:07:16;;;;;;;0.65;0.60;;;11.70;99.90;;;;;;5007742;28;20109;-68
2023/11/07 09:09:45;;;;;;;3.60;0.40;;;11.80;99.90;;;;;;5023854;28;20055;-68
2023/11/07 09:12:11;;;;;;;1.27;0.70;;;11.70;99.90;;;;;;5023920;28;20032;-68
2023/11/07 09:14:37;;;;;;;7.50;1.08;;;11.60;99.90;;;;;;5025364;28;20029;-68
2023/11/07 09:17:03;;;;;;;0.82;0.60;;;11.70;99.90;;;;;;5008753;28;20025;-68
2023/11/07 09:19:30;;;;;;;1.52;0.63;;;11.80;99.90;;;;;;5025975;28;20053;-68
2023/11/07 09:21:56;;;;;;;2.15;0.40;;;11.80;99.90;;;;;;5008343;28;20148;-68
2023/11/07 09:24:22;;;;;;;2.17;0.80;;;11.90;99.90;;;;;;5006191;28;20052;-68
2023/11/07 09:26:49;;;;;;;1.42;0.82;;;12.00;99.90;;;;;;5005730;28;20033;-68
2023/11/07 09:29:16;;;;;;;1.88;0.77;;;12.10;99.90;;;;;;5006640;28;20034;-68
2023/11/07 09:31:42;;;;;;;5.28;1.52;;;11.90;99.90;;;;;;5024780;28;20033;-68
2023/11/07 09:34:08;;;;;;;1.58;0.98;;;11.90;99.90;;;;;;5025165;28;20063;-68
2023/11/07 09:36:36;;;;;;;1.33;0.63;;;11.90;99.90;;;;;;5006779;28;20036;-68
2023/11/07 09:39:02;;;;;;;2.53;0.75;;;11.80;99.90;;;;;;5007008;28;20037;-67
2023/11/07 09:41:28;;;;;;;2.72;1.00;;;11.90;99.90;;;;;;5004206;28;20029;-68
2023/11/07 09:43:54;;;;;;;2.17;1.40;;;12.00;99.90;;;;;;5006859;28;20037;-68
2023/11/07 09:46:21;;;;;;;1.92;0.80;;;11.90;99.90;;;;;;5004543;28;20033;-68
2023/11/07 09:48:47;;;;;;;1.77;0.98;;;11.80;99.90;;;;;;5024177;28;20057;-68
2023/11/07 09:51:14;;;;;;;0.95;0.60;;;11.80;99.90;;;;;;5023477;28;20037;-68
2023/11/07 09:53:46;;;;;;;2.45;0.50;;;11.90;99.90;;;;;;5005749;28;20479;-67
2023/11/07 09:56:13;;;;;;;0.45;0.45;;;12.00;99.90;;;;;;5006041;28;20029;-68
2023/11/07 09:58:45;;;;;;;1.20;0.63;;;11.90;99.90;;;;;;5007207;28;20033;-67
2023/11/07 10:01:11;;;;;;;0.70;0.40;;;11.90;99.90;;;;;;5024085;28;20033;-67
2023/11/07 10:03:39;;;;;;;1.05;0.40;;;12.00;99.90;;;;;;5024058;28;20104;-68
2023/11/07 10:06:06;;;;;;;1.52;0.40;;;12.10;99.90;;;;;;5020852;28;20034;-68
2023/11/07 10:08:32;;;;;;;2.03;0.50;;;12.10;99.90;;;;;;5023212;28;20029;-69
2023/11/07 10:11:14;;;;;;;2.50;0.50;;;12.10;99.90;;;;;;5005695;28;20033;-68
2023/11/07 10:14:08;;;;;;;2.17;0.60;;;12.00;99.90;;;;;;5008923;28;20045;-67
2023/11/07 10:16:41;;;;;;;1.88;0.60;;;12.00;99.90;;;;;;5007103;28;20571;-68
2023/11/07 10:19:12;;;;;;;0.98;0.60;;;12.00;99.90;;;;;;5005903;28;20030;-67
2023/11/07 10:21:37;;;;;;;0.50;0.30;;;12.00;99.90;;;;;;5007722;28;20021;-68
2023/11/07 10:24:04;;;;;;;2.17;0.70;;;12.00;99.90;;;;;;5007691;28;20075;-68
2023/11/07 10:26:30;;;;;;;0.98;0.60;;;12.00;99.90;;;;;;5024090;28;20072;-68
2023/11/07 10:29:15;;;;;;;0.98;0.50;;;12.00;99.90;;;;;;5007834;28;20038;-67
2023/11/07 10:31:43;;;;;;;1.90;0.52;;;12.10;99.90;;;;;;5007659;28;20064;-69
2023/11/07 10:34:14;;;;;;;0.85;0.85;;;12.10;99.90;;;;;;5021362;28;20037;-68
2023/11/07 10:36:41;;;;;;;0.50;0.50;;;12.00;99.90;;;;;;5006966;28;20057;-68
2023/11/07 10:39:13;;;;;;;2.08;0.60;;;12.00;99.90;;;;;;5017929;28;20104;-68
2023/11/07 10:41:40;;;;;;;1.50;0.70;;;11.90;99.90;;;;;;5026274;28;20048;-67
2023/11/07 10:44:25;;;;;;;0.50;0.50;;;12.00;99.90;;;;;;5023559;28;21063;-68
2023/11/07 10:47:00;;;;;;;0.75;0.65;;;12.00;99.90;;;;;;5021809;28;20399;-67
2023/11/07 10:49:26;;;;;;;3.95;1.17;;;12.10;99.90;;;;;;5021791;28;20025;-68
2023/11/07 10:51:52;;;;;;;1.05;0.65;;;12.20;99.90;;;;;;5023734;28;20112;-68
2023/11/07 10:54:21;;;;;;;1.85;0.65;;;12.30;99.90;;;;;;5022597;28;20040;-67
2023/11/07 10:56:49;;;;;;;2.25;0.63;;;12.40;99.90;;;;;;5024858;28;20037;-67
2023/11/07 10:59:28;;;;;;;1.02;0.60;;;12.40;99.90;;;;;;5023590;28;20028;-68
2023/11/07 11:01:55;;;;;;;1.45;1.00;;;12.40;99.90;;;;;;5024704;28;20041;-67
2023/11/07 11:04:23;;;;;;;1.85;0.52;;;12.50;99.90;;;;;;5024021;28;20458;-68
2023/11/07 11:06:55;;;;;;;3.38;0.75;;;12.60;99.90;;;;;;5029063;28;20036;-68
2023/11/07 11:09:22;;;;;;;1.52;0.90;;;12.70;99.90;;;;;;5026904;28;20037;-68
2023/11/07 11:11:51;;;;;;;2.45;0.90;;;12.60;99.90;;;;;;5026582;28;20117;-68
2023/11/07 11:14:17;;;;;;;3.70;0.60;;;12.70;99.90;;;;;;5024410;28;20080;-68
2023/11/07 11:16:44;;;;;;;5.03;0.70;;;12.50;99.90;;;;;;5024858;28;20052;-68
2023/11/07 11:19:37;;;;;;;3.15;0.60;;;12.40;99.90;;;;;;5025025;28;20025;-68
2023/11/07 11:22:18;;;;;;;6.82;0.50;;;12.30;99.90;;;;;;5025040;28;20029;-67
2023/11/07 11:24:53;;;;;;;1.58;0.77;;;12.20;99.90;;;;;;5025699;28;20043;-67
2023/11/07 11:27:28;;;;;;;0.65;0.43;;;12.10;99.90;;;;;;5026512;28;20172;-68
2023/11/07 11:29:53;;;;;;;1.30;0.80;;;12.10;99.90;;;;;;5027676;28;20037;-68
2023/11/07 11:32:31;;;;;;;2.20;0.57;;;12.00;99.90;;;;;;5027991;28;20558;-68
2023/11/07 11:35:15;;;;;;;1.67;0.77;;;12.00;99.90;;;;;;5025235;28;22181;-67
2023/11/07 11:38:15;;;;;;;1.60;0.82;;;11.80;99.90;;;;;;5009628;28;20219;-67
2023/11/07 11:40:52;;;;;;;3.53;0.70;;;11.80;99.90;;;;;;5026351;28;20036;-68
2023/11/07 11:43:26;;;;;;;2.90;0.80;;;12.00;99.90;;;;;;5026320;28;20098;-67
2023/11/07 11:45:55;;;;;;;0.95;0.40;;;12.20;99.90;;;;;;5028068;28;20030;-67
2023/11/07 11:48:49;;;;;;;2.10;0.60;;;12.50;99.90;;;;;;5026607;28;20036;-67
2023/11/07 11:51:38;;;;;;;3.33;0.95;;;12.60;99.90;;;;;;5023217;28;20049;-68
2023/11/07 11:54:26;;;;;;;7.68;1.45;;;12.80;99.90;;;;;;5026507;28;20087;-67
2023/11/07 11:56:53;;;;;;;1.63;0.50;;;12.90;99.90;;;;;;5028071;28;20098;-69
2023/11/07 11:59:49;;;;;;;5.80;2.17;;;13.00;99.90;;;;;;5027578;28;20028;-68
2023/11/07 12:02:41;;;;;;;9.20;4.00;;;12.90;99.90;;;;;;5023535;28;20042;-67
2023/11/07 12:05:18;;;;;;;3.50;0.93;;;12.60;99.90;;;;;;5024488;28;20056;-68
2023/11/07 12:07:48;;;;;;;4.85;2.45;;;12.60;99.90;;;;;;5000483;28;20045;-68
2023/11/07 12:10:14;;;;;;;5.18;1.50;;;12.60;99.90;;;;;;5023057;28;20033;-69
2023/11/07 12:12:41;;;;;;;3.40;0.90;;;12.50;99.90;;;;;;5047695;28;20059;-67
2023/11/07 12:15:07;;;;;;;1.08;0.60;;;12.50;99.90;;;;;;5027842;28;20147;-67
2023/11/07 12:17:46;;;;;;;1.73;0.65;;;12.50;99.90;;;;;;5044603;28;20033;-67
2023/11/07 12:20:17;;;;;;;3.33;0.70;;;12.40;99.90;;;;;;5045863;28;20402;-68
2023/11/07 12:22:48;;;;;;;4.22;1.40;;;12.40;99.90;;;;;;5027186;28;20032;-67
2023/11/07 12:25:21;;;;;;;3.58;0.70;;;12.40;99.90;;;;;;5028348;28;20025;-68
2023/11/07 12:27:56;;;;;;;1.30;0.63;;;12.40;99.90;;;;;;5028292;28;20040;-68
2023/11/07 12:30:21;;;;;;;1.30;0.70;;;12.30;99.90;;;;;;5044589;28;20731;-67
2023/11/07 12:32:57;;;;;;;0.65;0.50;;;12.20;99.90;;;;;;5044162;28;20100;-68
2023/11/07 12:35:25;;;;;;;0.90;0.52;;;12.20;99.90;;;;;;5044988;28;20049;-67
2023/11/07 12:37:51;;;;;;;4.03;2.40;;;12.20;99.90;;;;;;5024773;28;20106;-68
2023/11/07 12:40:18;;;;;;;3.17;1.33;;;12.20;99.90;;;;;;5043950;28;20040;-68
2023/11/07 12:42:54;;;;;;;5.57;2.15;;;12.20;99.90;;;;;;5025662;28;20029;-68
2023/11/07 12:45:25;;;;;;;3.33;1.73;;;12.20;99.90;;;;;;5028843;28;20037;-68
2023/11/07 12:48:05;;;;;;;2.10;1.13;;;12.10;99.90;;;;;;5045326;28;20029;-68
2023/11/07 12:50:38;;;;;;;1.45;0.70;;;12.10;99.90;;;;;;5026346;28;20025;-68
2023/11/07 12:53:04;;;;;;;;;;;12.20;99.90;;;;;;5028554;28;20029;-68
2023/11/07 12:55:35;;;;;;;3.33;0.68;;;12.40;99.90;;;;;;5045499;28;19917;-67
2023/11/07 12:58:00;;;;;;;3.13;0.95;;;12.50;99.90;;;;;;5046385;28;20020;-67
2023/11/07 13:00:27;;;;;;;2.45;0.82;;;12.50;99.90;;;;;;5027352;28;20564;-67